Time;durP1;ratioP1;P1;durP2;ratioP2;P2;SDS_P1;SDS_P2;PMS_P1;PMS_P2;Temp;Humidity;BMP_temperature;BMP_pressure;BME280_temperature;BME280_humidity;BME280_pressure;Samples;Min_cycle;Max_cycle;Signal;HPM_P1;HPM_P2
2021/08/01 00:02:16;;;;;;;5.63;5.05;;;22.60;64.80;;;;;;5054110;28;20199;-89
2021/08/01 00:04:42;;;;;;;7.20;5.95;;;22.50;65.30;;;;;;5060627;28;20192;-88
2021/08/01 00:07:08;;;;;;;6.22;5.35;;;22.40;64.70;;;;;;5034574;28;20280;-88
2021/08/01 00:09:34;;;;;;;7.15;5.28;;;22.40;64.80;;;;;;5057416;28;20219;-88
2021/08/01 00:12:00;;;;;;;5.45;4.63;;;22.40;64.70;;;;;;5055743;28;20296;-88
2021/08/01 00:14:26;;;;;;;5.60;4.90;;;22.40;64.70;;;;;;5056676;28;20212;-89
2021/08/01 00:16:52;;;;;;;5.38;4.90;;;22.40;64.30;;;;;;5047890;28;20268;-88
2021/08/01 00:19:18;;;;;;;5.88;5.03;;;22.40;64.20;;;;;;5041545;28;20568;-88
2021/08/01 00:21:43;;;;;;;7.82;4.60;;;22.30;64.60;;;;;;5053568;28;20206;-88
2021/08/01 00:24:09;;;;;;;6.22;4.57;;;22.20;64.60;;;;;;5030851;28;20189;-88
2021/08/01 00:26:35;;;;;;;4.60;4.20;;;22.30;64.70;;;;;;5058871;28;20203;-89
2021/08/01 00:29:00;;;;;;;4.43;4.03;;;22.30;64.50;;;;;;5058544;28;20830;-89
2021/08/01 00:31:26;;;;;;;5.47;4.30;;;22.20;64.80;;;;;;5052946;28;20223;-89
2021/08/01 00:33:52;;;;;;;4.63;4.28;;;22.20;65.00;;;;;;5046390;28;20210;-88
2021/08/01 00:36:17;;;;;;;5.55;4.85;;;22.10;65.10;;;;;;5049171;28;20207;-89
2021/08/01 00:38:43;;;;;;;5.35;4.38;;;22.00;65.10;;;;;;5022922;28;20878;-89
2021/08/01 00:41:09;;;;;;;6.18;4.35;;;22.00;65.40;;;;;;5049038;28;20193;-89
2021/08/01 00:43:35;;;;;;;5.07;4.30;;;21.80;65.10;;;;;;5059164;28;20202;-89
2021/08/01 00:46:00;;;;;;;6.00;4.53;;;21.90;65.40;;;;;;5053922;28;20618;-88
2021/08/01 00:48:26;;;;;;;4.95;4.47;;;21.90;65.60;;;;;;5036055;28;20235;-88
2021/08/01 00:50:56;;;;;;;5.20;4.18;;;22.00;65.90;;;;;;5039411;28;20255;-88
2021/08/01 00:53:22;;;;;;;5.32;4.32;;;22.00;65.80;;;;;;5056277;28;20195;-88
2021/08/01 00:55:47;;;;;;;5.90;4.40;;;22.00;65.50;;;;;;5052022;28;20220;-88
2021/08/01 00:58:13;;;;;;;6.15;4.10;;;22.00;65.40;;;;;;5044425;28;20700;-88
2021/08/01 01:03:28;;;;;;;4.30;3.80;;;21.50;64.60;;;;;;5052751;28;20180;-88
2021/08/01 01:05:57;;;;;;;6.25;4.68;;;21.50;64.80;;;;;;5027837;28;20192;-89
2021/08/01 01:08:35;;;;;;;4.50;4.10;;;21.40;65.20;;;;;;5057585;28;20237;-88
2021/08/01 01:11:03;;;;;;;4.80;4.20;;;21.30;66.10;;;;;;5042372;28;20196;-88
2021/08/01 01:13:35;;;;;;;5.50;5.00;;;21.30;66.50;;;;;;5031352;28;20223;-88
2021/08/01 01:16:01;;;;;;;6.32;5.40;;;21.30;65.90;;;;;;5041578;28;20266;-88
2021/08/01 01:18:30;;;;;;;5.18;4.72;;;21.20;66.90;;;;;;5048399;28;20461;-88
2021/08/01 01:21:32;;;;;;;5.20;4.53;;;21.20;66.90;;;;;;5054107;28;20203;-88
2021/08/01 01:24:14;;;;;;;4.80;4.30;;;21.30;66.70;;;;;;5045248;28;20775;-88
2021/08/01 01:26:46;;;;;;;5.10;4.60;;;21.30;67.20;;;;;;5046297;28;20193;-88
2021/08/01 01:29:14;;;;;;;5.07;4.45;;;21.20;66.70;;;;;;5042681;28;20310;-88
2021/08/01 01:31:49;;;;;;;5.22;4.72;;;21.20;66.90;;;;;;5054531;28;20218;-89
2021/08/01 01:34:41;;;;;;;6.82;4.82;;;21.30;66.80;;;;;;5043826;28;20742;-88
2021/08/01 01:37:09;;;;;;;5.10;4.60;;;21.10;67.50;;;;;;5051606;28;20201;-88
2021/08/01 01:39:39;;;;;;;5.43;4.95;;;20.80;67.40;;;;;;5053925;28;20197;-88
2021/08/01 01:42:06;;;;;;;4.85;4.35;;;20.50;68.70;;;;;;5052539;28;20553;-88
2021/08/01 01:44:35;;;;;;;6.53;4.25;;;20.50;69.10;;;;;;5055313;28;20200;-88
2021/08/01 01:47:01;;;;;;;5.00;4.50;;;20.50;69.60;;;;;;5052701;28;20519;-88
2021/08/01 01:49:27;;;;;;;5.53;4.72;;;20.50;69.30;;;;;;5026425;28;20217;-88
2021/08/01 01:51:55;;;;;;;5.28;4.78;;;20.50;69.00;;;;;;5049044;28;20232;-89
2021/08/01 01:54:21;;;;;;;4.63;4.22;;;20.30;70.20;;;;;;5047458;28;20181;-88
2021/08/01 01:56:48;;;;;;;5.25;4.80;;;20.20;71.10;;;;;;5042457;28;20426;-88
2021/08/01 01:59:15;;;;;;;5.55;4.72;;;20.00;70.70;;;;;;5056305;28;20200;-89
2021/08/01 02:01:41;;;;;;;6.32;4.13;;;20.10;70.50;;;;;;5057754;28;20192;-88
2021/08/01 02:04:07;;;;;;;4.80;4.22;;;20.20;70.10;;;;;;5040954;28;20192;-88
2021/08/01 02:06:34;;;;;;;4.82;4.38;;;20.40;69.90;;;;;;5043764;28;20192;-88
2021/08/01 02:09:12;;;;;;;6.05;4.32;;;20.40;70.40;;;;;;5058389;28;20328;-88
2021/08/01 02:12:16;;;;;;;5.30;3.83;;;20.20;71.10;;;;;;5049988;28;20215;-88
2021/08/01 02:15:07;;;;;;;5.80;4.78;;;20.00;72.60;;;;;;5006107;28;20196;-88
2021/08/01 02:17:45;;;;;;;5.15;4.20;;;19.90;73.00;;;;;;5049024;28;20168;-88
2021/08/01 02:20:13;;;;;;;10.25;4.75;;;19.80;74.40;;;;;;5056485;28;20192;-88
2021/08/01 02:22:41;;;;;;;4.80;4.30;;;19.60;74.40;;;;;;5052961;28;20187;-88
2021/08/01 02:25:08;;;;;;;6.80;4.38;;;19.50;75.50;;;;;;5056682;28;20196;-88
2021/08/01 02:27:36;;;;;;;5.88;4.55;;;19.60;75.50;;;;;;5057746;28;20176;-88
2021/08/01 02:30:03;;;;;;;5.53;4.53;;;19.50;75.30;;;;;;5030527;28;20185;-88
2021/08/01 02:32:31;;;;;;;6.78;4.78;;;19.50;75.40;;;;;;5049313;28;20215;-88
2021/08/01 02:34:58;;;;;;;4.68;4.28;;;19.50;75.70;;;;;;5043473;28;20200;-88
2021/08/01 02:37:26;;;;;;;5.25;4.32;;;19.30;76.20;;;;;;5058240;28;20196;-88
2021/08/01 02:39:54;;;;;;;4.57;4.18;;;19.30;78.10;;;;;;5064180;28;20207;-89
2021/08/01 02:42:22;;;;;;;5.68;4.80;;;19.30;77.70;;;;;;5049283;28;20627;-88
2021/08/01 02:44:48;;;;;;;8.18;4.65;;;19.30;78.50;;;;;;5056708;28;20271;-88
2021/08/01 02:47:18;;;;;;;6.00;4.90;;;19.20;78.80;;;;;;5045176;28;20208;-88
2021/08/01 02:49:46;;;;;;;6.97;4.35;;;19.30;79.10;;;;;;5051713;28;20241;-88
2021/08/01 02:52:28;;;;;;;7.38;4.45;;;19.10;78.90;;;;;;5052924;28;20204;-88
2021/08/01 02:54:54;;;;;;;5.32;4.32;;;19.10;81.40;;;;;;5051133;28;20183;-89
2021/08/01 02:57:22;;;;;;;5.75;4.78;;;19.20;79.60;;;;;;5034176;28;20234;-89
2021/08/01 02:59:49;;;;;;;5.38;4.43;;;19.20;80.20;;;;;;5053774;28;20212;-88
2021/08/01 03:02:15;;;;;;;6.70;4.70;;;19.10;80.40;;;;;;5047590;28;20192;-88
2021/08/01 03:04:43;;;;;;;5.63;4.40;;;19.10;81.10;;;;;;5051588;28;20195;-88
2021/08/01 03:07:13;;;;;;;5.30;4.47;;;18.90;81.60;;;;;;5046471;28;20243;-89
2021/08/01 03:09:39;;;;;;;5.00;4.53;;;19.00;82.10;;;;;;5045972;28;20851;-89
2021/08/01 03:12:15;;;;;;;5.35;4.85;;;19.10;81.90;;;;;;5046172;28;20237;-89
2021/08/01 03:14:41;;;;;;;5.90;5.32;;;19.10;80.70;;;;;;5053510;28;20199;-89
2021/08/01 03:17:07;;;;;;;5.45;4.90;;;19.20;82.50;;;;;;5045189;28;20277;-89
2021/08/01 03:19:35;;;;;;;7.05;5.80;;;19.30;81.60;;;;;;5056898;28;20272;-89
2021/08/01 03:22:01;;;;;;;6.20;5.15;;;19.20;81.20;;;;;;5054159;28;20185;-89
2021/08/01 03:24:27;;;;;;;5.93;4.72;;;18.90;82.20;;;;;;5054104;28;20199;-88
2021/08/01 03:26:53;;;;;;;5.43;4.93;;;18.90;82.60;;;;;;5047701;28;20196;-89
2021/08/01 03:29:19;;;;;;;5.57;4.90;;;18.80;82.70;;;;;;5025950;28;20269;-89
2021/08/01 03:31:44;;;;;;;5.40;5.00;;;18.80;84.40;;;;;;5058594;28;20218;-89
2021/08/01 03:34:10;;;;;;;5.43;4.93;;;18.60;84.20;;;;;;5057749;28;20278;-89
2021/08/01 03:36:36;;;;;;;7.05;5.20;;;18.70;83.80;;;;;;5044642;28;20187;-89
2021/08/01 03:39:03;;;;;;;6.05;4.78;;;18.60;84.30;;;;;;5059383;28;20215;-90
2021/08/01 03:41:29;;;;;;;8.23;4.80;;;18.60;84.70;;;;;;5056203;28;20230;-89
2021/08/01 03:43:55;;;;;;;7.00;5.03;;;18.60;84.50;;;;;;5024226;28;20208;-89
2021/08/01 03:46:21;;;;;;;5.07;4.63;;;18.60;84.50;;;;;;5056004;28;20192;-90
2021/08/01 03:48:47;;;;;;;6.03;4.82;;;18.60;84.50;;;;;;5060387;28;20222;-90
2021/08/01 03:51:12;;;;;;;5.47;4.93;;;18.50;85.20;;;;;;5056397;28;20218;-90
2021/08/01 03:53:38;;;;;;;4.90;4.38;;;18.60;85.30;;;;;;5047924;28;20189;-89
2021/08/01 03:56:04;;;;;;;5.78;5.22;;;18.70;85.50;;;;;;5056862;28;20187;-89
2021/08/01 03:58:30;;;;;;;5.28;4.78;;;18.70;85.20;;;;;;5057178;28;20207;-90
2021/08/01 04:00:56;;;;;;;5.40;4.70;;;18.70;84.40;;;;;;5058233;28;20270;-90
2021/08/01 04:03:22;;;;;;;7.57;5.22;;;18.70;85.60;;;;;;5040641;28;20200;-90
2021/08/01 04:05:47;;;;;;;5.90;5.28;;;18.70;86.00;;;;;;5057101;28;20207;-89
2021/08/01 04:08:13;;;;;;;5.60;4.68;;;18.70;86.50;;;;;;5057988;28;20241;-90
2021/08/01 04:10:39;;;;;;;7.07;5.53;;;18.70;84.60;;;;;;5038093;28;20195;-90
2021/08/01 04:13:05;;;;;;;7.05;4.85;;;18.80;84.60;;;;;;5038565;28;20233;-89
2021/08/01 04:15:31;;;;;;;5.60;5.00;;;18.70;84.80;;;;;;5059963;28;20184;-89
2021/08/01 04:17:57;;;;;;;4.90;4.50;;;18.80;85.10;;;;;;5039769;28;20214;-90
2021/08/01 04:20:23;;;;;;;5.60;5.10;;;19.00;84.10;;;;;;5031206;28;20223;-90
2021/08/01 04:22:53;;;;;;;5.07;4.57;;;19.10;83.70;;;;;;5054389;28;20271;-90
2021/08/01 04:25:19;;;;;;;6.30;4.88;;;19.20;82.70;;;;;;5059462;28;20187;-89
2021/08/01 04:27:45;;;;;;;5.82;5.25;;;19.30;82.70;;;;;;5042611;28;20218;-89
2021/08/01 04:30:11;;;;;;;6.13;4.88;;;19.20;82.20;;;;;;5057374;28;20196;-90
2021/08/01 04:32:37;;;;;;;7.30;4.80;;;19.20;82.50;;;;;;5055383;28;20214;-90
2021/08/01 04:35:04;;;;;;;6.25;5.03;;;19.20;82.40;;;;;;5041032;28;20613;-89
2021/08/01 04:37:29;;;;;;;5.53;5.03;;;19.30;82.50;;;;;;5055769;28;20199;-90
2021/08/01 04:39:55;;;;;;;6.35;4.72;;;19.40;81.30;;;;;;5053162;28;20211;-89
2021/08/01 04:42:21;;;;;;;7.10;4.47;;;19.60;81.80;;;;;;5058103;28;20191;-90
2021/08/01 04:44:46;;;;;;;5.53;4.78;;;19.60;80.90;;;;;;5042497;28;20196;-90
2021/08/01 04:47:14;;;;;;;8.10;5.20;;;19.50;80.80;;;;;;5052410;28;20204;-89
2021/08/01 04:49:40;;;;;;;7.20;5.00;;;19.40;81.10;;;;;;5044285;28;20216;-89
2021/08/01 04:52:06;;;;;;;5.78;4.80;;;19.30;81.60;;;;;;5057989;28;20207;-90
2021/08/01 04:54:36;;;;;;;7.05;4.80;;;19.40;81.70;;;;;;5055724;28;20250;-89
2021/08/01 04:57:02;;;;;;;5.97;5.43;;;19.40;81.90;;;;;;5055312;28;20192;-89
2021/08/01 04:59:28;;;;;;;5.07;4.68;;;19.20;83.00;;;;;;5057780;28;20216;-89
2021/08/01 05:01:54;;;;;;;5.70;4.18;;;19.10;82.80;;;;;;5048287;28;20200;-89
2021/08/01 05:04:20;;;;;;;5.82;5.32;;;19.20;82.20;;;;;;5044387;28;20231;-90
2021/08/01 05:06:46;;;;;;;5.78;5.15;;;19.30;81.80;;;;;;5048214;28;20258;-89
2021/08/01 05:09:12;;;;;;;5.60;4.82;;;19.20;81.80;;;;;;5040494;28;20204;-90
2021/08/01 05:11:37;;;;;;;5.35;4.85;;;19.20;82.00;;;;;;5056537;28;20287;-89
2021/08/01 05:14:03;;;;;;;6.47;4.47;;;19.20;82.10;;;;;;5029905;28;20215;-89
2021/08/01 05:16:29;;;;;;;5.72;5.00;;;19.20;81.90;;;;;;5046838;28;20193;-89
2021/08/01 05:18:55;;;;;;;6.70;4.63;;;19.30;82.80;;;;;;5036360;28;20236;-89
2021/08/01 05:21:22;;;;;;;4.85;4.45;;;19.20;81.90;;;;;;5057946;28;20196;-89
2021/08/01 05:23:48;;;;;;;4.85;4.45;;;19.30;82.00;;;;;;5048687;28;20184;-89
2021/08/01 05:26:15;;;;;;;5.45;4.93;;;19.20;82.20;;;;;;5030002;28;20226;-89
2021/08/01 05:28:41;;;;;;;7.30;4.63;;;19.10;82.40;;;;;;5047465;28;20267;-89
2021/08/01 05:31:06;;;;;;;5.88;5.05;;;19.10;82.80;;;;;;5058851;28;20246;-89
2021/08/01 05:33:32;;;;;;;6.15;4.97;;;19.00;83.40;;;;;;5044625;28;20193;-89
2021/08/01 05:35:58;;;;;;;6.47;4.78;;;18.80;83.40;;;;;;5047446;28;20193;-89
2021/08/01 05:38:23;;;;;;;5.55;5.05;;;18.80;83.60;;;;;;5040680;28;20226;-90
2021/08/01 05:40:49;;;;;;;6.85;4.70;;;18.80;83.50;;;;;;5057740;28;20196;-90
2021/08/01 05:43:15;;;;;;;5.35;4.85;;;18.70;83.50;;;;;;5056094;28;20251;-89
2021/08/01 05:45:42;;;;;;;7.47;4.47;;;18.80;83.10;;;;;;5055181;28;20686;-89
2021/08/01 05:48:09;;;;;;;5.43;4.38;;;18.80;82.40;;;;;;5057013;28;20196;-90
2021/08/01 05:50:35;;;;;;;5.43;4.57;;;18.80;81.80;;;;;;5046863;28;20195;-89
2021/08/01 05:53:00;;;;;;;4.30;3.75;;;18.60;82.00;;;;;;5049931;28;20742;-89
2021/08/01 05:55:26;;;;;;;4.20;3.88;;;18.50;81.60;;;;;;5048036;28;20183;-89
2021/08/01 05:57:52;;;;;;;4.47;4.07;;;18.50;81.30;;;;;;5049431;28;20270;-88
2021/08/01 06:00:17;;;;;;;4.68;3.70;;;18.50;80.60;;;;;;5048451;28;20196;-88
2021/08/01 06:02:43;;;;;;;7.65;3.80;;;18.40;80.80;;;;;;5055910;28;20698;-89
2021/08/01 06:05:09;;;;;;;5.37;4.30;;;18.40;79.70;;;;;;5037976;28;20194;-89
2021/08/01 06:07:35;;;;;;;4.77;3.47;;;18.30;80.60;;;;;;5046906;28;20288;-89
2021/08/01 06:10:00;;;;;;;5.03;3.60;;;18.30;79.00;;;;;;5045645;28;20756;-89
2021/08/01 06:12:26;;;;;;;3.50;3.03;;;18.30;79.10;;;;;;5039959;28;20213;-89
2021/08/01 06:14:52;;;;;;;3.20;2.90;;;18.20;77.00;;;;;;5047493;28;20560;-88
2021/08/01 06:17:17;;;;;;;3.53;3.10;;;18.20;76.00;;;;;;5051495;28;20193;-88
2021/08/01 06:19:43;;;;;;;3.60;3.20;;;18.00;77.80;;;;;;5046298;28;20698;-89
2021/08/01 06:22:09;;;;;;;4.27;3.33;;;18.10;78.30;;;;;;5053026;28;20206;-89
2021/08/01 06:24:35;;;;;;;3.90;2.97;;;18.10;77.10;;;;;;5049872;28;20200;-89
2021/08/01 06:27:02;;;;;;;5.70;3.07;;;18.00;77.90;;;;;;5050650;28;20202;-89
2021/08/01 06:29:28;;;;;;;3.70;3.33;;;18.00;78.50;;;;;;5053294;28;20350;-89
2021/08/01 06:31:53;;;;;;;3.63;3.20;;;18.10;79.00;;;;;;5052684;28;20249;-89
2021/08/01 06:34:19;;;;;;;3.67;3.37;;;18.10;78.80;;;;;;5036383;28;20644;-90
2021/08/01 06:36:45;;;;;;;3.17;2.87;;;18.30;79.10;;;;;;5048073;28;20723;-90
2021/08/01 06:39:10;;;;;;;3.38;3.08;;;18.30;78.30;;;;;;5035763;28;20584;-88
2021/08/01 06:41:36;;;;;;;3.30;3.00;;;18.40;78.00;;;;;;5044270;28;20225;-88
2021/08/01 06:44:02;;;;;;;3.93;3.13;;;18.30;78.00;;;;;;5046622;28;20865;-88
2021/08/01 06:46:29;;;;;;;4.07;3.43;;;18.40;78.70;;;;;;5046887;28;20196;-89
2021/08/01 06:48:55;;;;;;;4.73;3.57;;;18.40;78.60;;;;;;5043696;28;20285;-89
2021/08/01 06:51:21;;;;;;;5.30;3.27;;;18.20;79.70;;;;;;5048791;28;20648;-90
2021/08/01 06:53:46;;;;;;;4.00;3.60;;;18.20;80.90;;;;;;5054504;28;20187;-91
2021/08/01 06:56:12;;;;;;;5.67;3.37;;;18.30;82.10;;;;;;5055934;28;20198;-92
2021/08/01 06:58:38;;;;;;;4.27;3.87;;;18.10;83.30;;;;;;5056642;28;20732;-91
2021/08/01 07:01:04;;;;;;;4.83;4.17;;;18.00;84.50;;;;;;5055016;28;20212;-90
2021/08/01 07:03:29;;;;;;;4.07;3.67;;;18.00;85.70;;;;;;5044349;28;20195;-91
2021/08/01 07:05:56;;;;;;;4.00;3.60;;;17.90;85.30;;;;;;5057426;28;20203;-91
2021/08/01 07:08:22;;;;;;;4.10;3.50;;;17.90;84.40;;;;;;5059577;28;20246;-92
2021/08/01 07:10:48;;;;;;;4.70;3.80;;;17.90;84.60;;;;;;5056162;28;20286;-88
2021/08/01 07:13:13;;;;;;;4.37;3.97;;;17.90;84.50;;;;;;5050403;28;20189;-91
2021/08/01 07:15:39;;;;;;;4.00;3.70;;;17.90;85.30;;;;;;5049620;28;20217;-91
2021/08/01 07:18:06;;;;;;;3.83;3.50;;;18.10;85.40;;;;;;5056688;28;20215;-90
2021/08/01 07:20:33;;;;;;;6.33;4.00;;;18.20;84.40;;;;;;5054203;28;20201;-90
2021/08/01 07:22:58;;;;;;;3.73;3.30;;;18.30;85.30;;;;;;5056185;28;20200;-89
2021/08/01 07:25:24;;;;;;;4.47;3.50;;;18.20;83.80;;;;;;5053712;28;20208;-90
2021/08/01 07:27:54;;;;;;;4.07;3.70;;;18.20;85.20;;;;;;5041009;28;20185;-90
2021/08/01 07:30:20;;;;;;;4.87;3.60;;;18.40;85.60;;;;;;5051343;28;20214;-88
2021/08/01 07:32:46;;;;;;;4.57;3.83;;;18.40;83.60;;;;;;5037390;28;20218;-89
2021/08/01 07:35:12;;;;;;;7.40;3.73;;;18.60;83.20;;;;;;5054011;28;20199;-90
2021/08/01 07:37:39;;;;;;;5.37;3.80;;;18.70;82.90;;;;;;5049224;28;20242;-89
2021/08/01 07:40:05;;;;;;;4.97;4.07;;;18.70;83.00;;;;;;5010157;28;20227;-91
2021/08/01 07:42:31;;;;;;;5.37;4.00;;;18.70;82.30;;;;;;5028879;28;20197;-90
2021/08/01 07:45:02;;;;;;;6.57;4.40;;;18.70;82.90;;;;;;5051576;28;20335;-91
2021/08/01 07:47:30;;;;;;;5.87;4.23;;;18.60;83.70;;;;;;5054404;28;20201;-91
2021/08/01 07:49:56;;;;;;;4.23;3.93;;;18.60;82.30;;;;;;5025951;28;20230;-90
2021/08/01 07:52:22;;;;;;;4.90;3.83;;;18.60;83.10;;;;;;5029277;28;20250;-91
2021/08/01 07:54:48;;;;;;;4.10;3.70;;;18.70;83.00;;;;;;5032963;28;20191;-90
2021/08/01 07:57:31;;;;;;;6.55;3.85;;;18.70;82.70;;;;;;5038067;28;20254;-91
2021/08/01 07:59:58;;;;;;;4.33;3.93;;;18.80;81.90;;;;;;5049467;28;20210;-91
2021/08/01 08:02:25;;;;;;;6.57;4.07;;;18.80;83.00;;;;;;5044849;28;20209;-90
2021/08/01 08:04:51;;;;;;;4.72;4.22;;;18.90;81.50;;;;;;5041102;28;20203;-90
2021/08/01 08:07:18;;;;;;;7.85;3.83;;;19.00;81.70;;;;;;5046727;28;20203;-90
2021/08/01 08:09:43;;;;;;;5.93;4.43;;;19.20;81.60;;;;;;5028589;28;20219;-90
2021/08/01 08:12:10;;;;;;;6.10;4.32;;;19.10;80.60;;;;;;5032822;28;20226;-90
2021/08/01 08:14:36;;;;;;;5.68;4.63;;;19.00;81.20;;;;;;5028684;28;20200;-91
2021/08/01 08:17:02;;;;;;;6.90;4.70;;;18.80;81.90;;;;;;5046578;28;20188;-91
2021/08/01 08:19:28;;;;;;;5.57;4.75;;;18.80;81.40;;;;;;5043898;28;20231;-91
2021/08/01 08:21:57;;;;;;;4.47;4.07;;;18.80;81.50;;;;;;5064836;28;20204;-90
2021/08/01 08:24:26;;;;;;;5.87;4.43;;;18.90;81.40;;;;;;5064040;28;20208;-90
2021/08/01 08:26:53;;;;;;;5.67;4.40;;;18.80;81.60;;;;;;5055285;28;20218;-89
2021/08/01 08:29:19;;;;;;;4.57;4.17;;;18.80;82.00;;;;;;5045961;28;20214;-90
2021/08/01 08:31:50;;;;;;;5.37;4.43;;;18.80;83.10;;;;;;5047412;28;20223;-89
2021/08/01 08:34:16;;;;;;;7.77;4.60;;;18.90;81.00;;;;;;5041672;28;20207;-89
2021/08/01 08:36:47;;;;;;;5.23;4.70;;;19.00;80.80;;;;;;5045546;28;20200;-89
2021/08/01 08:39:17;;;;;;;5.78;4.78;;;18.90;82.30;;;;;;5042339;28;20226;-90
2021/08/01 08:41:43;;;;;;;4.95;4.55;;;19.10;82.20;;;;;;5040157;28;20199;-90
2021/08/01 08:44:09;;;;;;;5.75;5.05;;;19.10;81.30;;;;;;5050945;28;20243;-90
2021/08/01 08:46:36;;;;;;;6.43;5.10;;;19.10;81.70;;;;;;5025299;28;20196;-90
2021/08/01 08:49:12;;;;;;;7.13;5.13;;;19.20;80.60;;;;;;5047034;28;20214;-89
2021/08/01 08:51:40;;;;;;;6.53;5.25;;;19.20;81.40;;;;;;5047638;28;20214;-90
2021/08/01 08:54:10;;;;;;;6.13;5.20;;;19.40;80.90;;;;;;5044597;28;20569;-90
2021/08/01 08:56:37;;;;;;;5.65;5.07;;;19.60;78.90;;;;;;5042840;28;20187;-90
2021/08/01 08:59:04;;;;;;;6.50;5.32;;;19.50;79.90;;;;;;5046601;28;20242;-89
2021/08/01 09:01:30;;;;;;;5.45;5.05;;;19.50;80.70;;;;;;5043774;28;20685;-89
2021/08/01 09:03:56;;;;;;;6.03;5.28;;;19.80;78.60;;;;;;5046556;28;20199;-88
2021/08/01 09:06:21;;;;;;;5.80;5.07;;;19.70;79.20;;;;;;5025999;28;20290;-88
2021/08/01 09:08:47;;;;;;;7.25;5.20;;;19.90;78.20;;;;;;5047742;28;20274;-89
2021/08/01 09:11:13;;;;;;;9.05;5.35;;;19.80;77.70;;;;;;5047492;28;20768;-88
2021/08/01 09:13:49;;;;;;;6.25;5.00;;;19.80;76.80;;;;;;5011268;28;20199;-89
2021/08/01 09:16:17;;;;;;;6.45;4.85;;;19.90;76.30;;;;;;5047171;28;20818;-88
2021/08/01 09:18:44;;;;;;;9.05;5.20;;;20.00;76.70;;;;;;5026345;28;20222;-89
2021/08/01 09:21:27;;;;;;;5.63;5.10;;;19.80;77.20;;;;;;5047059;28;20242;-89
2021/08/01 09:23:52;;;;;;;6.60;4.75;;;19.90;77.80;;;;;;5039554;28;20184;-88
2021/08/01 09:26:18;;;;;;;6.05;5.35;;;20.00;77.40;;;;;;5042445;28;20778;-88
2021/08/01 09:29:01;;;;;;;5.70;5.20;;;19.80;78.00;;;;;;5046884;28;20211;-88
2021/08/01 09:31:27;;;;;;;7.25;5.30;;;19.80;77.50;;;;;;5049286;28;20714;-89
2021/08/01 09:33:53;;;;;;;6.80;5.50;;;19.90;78.50;;;;;;5047180;28;20197;-88
2021/08/01 09:36:24;;;;;;;6.80;5.50;;;19.90;78.10;;;;;;5046214;28;20215;-89
2021/08/01 09:38:55;;;;;;;5.90;5.25;;;19.90;78.30;;;;;;5049517;28;20208;-89
2021/08/01 09:41:32;;;;;;;7.15;6.15;;;20.10;76.60;;;;;;5051275;28;20226;-89
2021/08/01 09:44:00;;;;;;;6.13;5.07;;;20.00;76.70;;;;;;5055389;28;20193;-89
2021/08/01 09:46:41;;;;;;;7.10;5.78;;;20.20;76.10;;;;;;5052504;28;20212;-88
2021/08/01 09:49:12;;;;;;;5.97;5.30;;;20.10;76.20;;;;;;5044676;28;20216;-88
2021/08/01 09:51:39;;;;;;;6.32;5.38;;;20.10;75.90;;;;;;5045256;28;20216;-89
2021/08/01 09:54:06;;;;;;;7.90;5.68;;;20.00;76.90;;;;;;5047134;28;20187;-88
2021/08/01 09:56:31;;;;;;;5.80;5.40;;;20.00;77.80;;;;;;5048000;28;20245;-88
2021/08/01 09:58:57;;;;;;;7.15;5.63;;;19.90;78.60;;;;;;5045236;28;20207;-88
2021/08/01 10:01:23;;;;;;;6.45;5.65;;;20.10;77.10;;;;;;5051099;28;20805;-88
2021/08/01 10:03:50;;;;;;;6.63;5.45;;;20.30;76.70;;;;;;5047843;28;20207;-88
2021/08/01 10:06:23;;;;;;;7.43;6.10;;;20.30;77.00;;;;;;5045179;28;20195;-89
2021/08/01 10:08:53;;;;;;;5.60;5.20;;;20.40;77.80;;;;;;5049688;28;20224;-88
2021/08/01 10:11:23;;;;;;;6.80;6.03;;;20.50;76.70;;;;;;5050655;28;20718;-90
2021/08/01 10:13:51;;;;;;;6.57;5.95;;;20.70;76.20;;;;;;5053753;28;20184;-91
2021/08/01 10:16:18;;;;;;;7.80;5.60;;;20.90;73.80;;;;;;5027940;28;20727;-93
2021/08/01 10:18:46;;;;;;;5.65;5.15;;;20.90;71.70;;;;;;5043098;28;20278;-90
2021/08/01 10:21:21;;;;;;;6.13;5.32;;;21.10;72.90;;;;;;5049879;28;20196;-89
2021/08/01 10:23:53;;;;;;;7.47;5.57;;;21.10;74.60;;;;;;5048543;28;20202;-88
2021/08/01 10:26:22;;;;;;;5.32;4.93;;;20.90;74.70;;;;;;5048502;28;20292;-88
2021/08/01 10:28:57;;;;;;;6.28;5.68;;;20.70;73.70;;;;;;5045235;28;20771;-89
2021/08/01 10:32:03;;;;;;;9.43;4.65;;;20.90;73.50;;;;;;5049087;28;20207;-88
2021/08/01 10:34:37;;;;;;;5.18;4.68;;;21.00;70.80;;;;;;5014810;28;20690;-89
2021/08/01 10:37:08;;;;;;;6.07;5.05;;;21.20;71.00;;;;;;5043123;28;20187;-89
2021/08/01 10:39:35;;;;;;;6.20;5.53;;;21.50;69.30;;;;;;5040596;28;20212;-88
2021/08/01 10:42:07;;;;;;;5.28;4.78;;;21.50;68.80;;;;;;5046229;28;20251;-87
2021/08/01 10:44:35;;;;;;;5.20;4.40;;;21.60;69.70;;;;;;5043354;28;20188;-89
2021/08/01 10:47:06;;;;;;;5.03;4.57;;;21.90;68.10;;;;;;5047965;28;20186;-88
2021/08/01 10:49:43;;;;;;;5.47;4.97;;;21.60;69.10;;;;;;5030381;28;20280;-87
2021/08/01 10:52:10;;;;;;;4.97;4.53;;;21.70;70.10;;;;;;5046474;28;20227;-89
2021/08/01 10:54:57;;;;;;;5.47;4.88;;;21.70;68.70;;;;;;5028326;28;20180;-90
2021/08/01 10:57:24;;;;;;;5.93;5.03;;;22.00;69.70;;;;;;5044745;28;20192;-89
2021/08/01 10:59:50;;;;;;;5.15;4.65;;;21.90;68.10;;;;;;5043989;28;20304;-90
2021/08/01 11:02:18;;;;;;;8.43;5.78;;;21.70;69.80;;;;;;5047056;28;20176;-90
2021/08/01 11:04:46;;;;;;;5.63;5.07;;;22.20;70.40;;;;;;5049005;28;20183;-89
2021/08/01 11:07:32;;;;;;;6.15;5.38;;;22.60;67.20;;;;;;5048402;28;20203;-91
2021/08/01 11:10:07;;;;;;;5.10;4.57;;;22.60;65.70;;;;;;5010281;28;20256;-90
2021/08/01 11:12:34;;;;;;;4.90;4.50;;;22.80;67.50;;;;;;5042700;28;20275;-91
2021/08/01 11:15:01;;;;;;;4.35;3.95;;;22.80;64.40;;;;;;5046901;28;20275;-90
2021/08/01 11:17:54;;;;;;;4.55;4.20;;;22.90;64.90;;;;;;5033045;28;20206;-90
2021/08/01 11:20:23;;;;;;;5.15;4.10;;;23.00;64.30;;;;;;5015327;28;20195;-90
2021/08/01 11:22:49;;;;;;;4.10;3.70;;;22.70;63.10;;;;;;5044942;28;20660;-90
2021/08/01 11:25:23;;;;;;;5.05;4.00;;;22.40;63.70;;;;;;5046017;28;20196;-89
2021/08/01 11:28:08;;;;;;;4.00;3.70;;;22.30;64.00;;;;;;5050719;28;20199;-90
2021/08/01 11:30:55;;;;;;;3.95;3.65;;;22.70;63.40;;;;;;5027309;28;20257;-91
2021/08/01 11:33:40;;;;;;;7.78;4.25;;;23.30;59.60;;;;;;5041717;28;20193;-91
2021/08/01 11:36:12;;;;;;;6.10;3.97;;;23.50;61.50;;;;;;5046638;28;20246;-90
2021/08/01 11:38:53;;;;;;;4.38;3.97;;;23.70;60.10;;;;;;5046958;28;20205;-90
2021/08/01 11:41:40;;;;;;;3.80;3.50;;;23.50;60.50;;;;;;5045949;28;21338;-90
2021/08/01 11:44:25;;;;;;;4.10;3.65;;;23.70;58.20;;;;;;5029609;28;20184;-89
2021/08/01 11:47:03;;;;;;;4.30;4.00;;;24.30;57.30;;;;;;5009994;28;20246;-90
2021/08/01 11:49:49;;;;;;;3.83;3.53;;;24.10;59.30;;;;;;5052869;28;20220;-89
2021/08/01 11:52:45;;;;;;;3.72;3.42;;;23.90;59.00;;;;;;5029379;28;20216;-90
2021/08/01 11:55:18;;;;;;;4.65;3.50;;;23.50;58.50;;;;;;5046252;28;20187;-90
2021/08/01 11:57:50;;;;;;;5.18;3.30;;;24.10;55.70;;;;;;5054196;28;20188;-90
2021/08/01 12:00:22;;;;;;;3.80;3.42;;;24.50;55.20;;;;;;5047558;28;20188;-88
2021/08/01 12:02:54;;;;;;;4.43;3.65;;;24.30;55.90;;;;;;5045710;28;20201;-90
2021/08/01 12:05:20;;;;;;;3.83;3.45;;;24.60;55.40;;;;;;5035491;28;20218;-89
2021/08/01 12:07:50;;;;;;;3.67;3.38;;;24.80;54.00;;;;;;5052759;28;20204;-89
2021/08/01 12:10:20;;;;;;;4.38;3.70;;;24.70;53.60;;;;;;5053582;28;20200;-89
2021/08/01 12:12:46;;;;;;;4.80;4.00;;;24.50;55.30;;;;;;5052497;28;20208;-89
2021/08/01 12:15:13;;;;;;;5.13;3.45;;;24.30;54.70;;;;;;5047858;28;20216;-90
2021/08/01 12:17:39;;;;;;;3.17;2.92;;;24.40;54.60;;;;;;5052984;28;20185;-89
2021/08/01 12:20:05;;;;;;;2.30;2.10;;;23.90;53.20;;;;;;5056402;28;20200;-90
2021/08/01 12:22:32;;;;;;;5.88;2.33;;;22.90;55.60;;;;;;5046651;28;20199;-89
2021/08/01 12:25:00;;;;;;;5.90;3.35;;;22.10;62.00;;;;;;5056792;28;20181;-91
2021/08/01 12:27:29;;;;;;;5.72;2.72;;;20.80;66.00;;;;;;5054458;28;20208;-90
2021/08/01 12:30:01;;;;;;;5.28;2.35;;;20.10;71.00;;;;;;5031099;28;20208;-90
2021/08/01 12:32:38;;;;;;;4.13;2.70;;;19.80;69.50;;;;;;5047510;28;20303;-90
2021/08/01 12:35:13;;;;;;;2.75;2.25;;;19.50;70.90;;;;;;5054587;28;20188;-90
2021/08/01 12:37:50;;;;;;;4.28;2.30;;;19.00;71.70;;;;;;5051662;28;20221;-90
2021/08/01 12:40:28;;;;;;;2.55;2.20;;;19.00;73.30;;;;;;5029133;28;20200;-90
2021/08/01 12:43:06;;;;;;;2.95;2.70;;;18.60;74.20;;;;;;5053083;28;20271;-90
2021/08/01 12:45:31;;;;;;;3.78;2.47;;;18.40;74.20;;;;;;5042501;28;20205;-90
2021/08/01 12:47:58;;;;;;;3.13;2.60;;;18.40;78.00;;;;;;5062408;28;20269;-90
2021/08/01 12:50:24;;;;;;;3.53;2.80;;;18.40;79.80;;;;;;5061696;28;20733;-90
2021/08/01 12:52:50;;;;;;;3.17;2.87;;;18.30;83.00;;;;;;5050281;28;20223;-90
2021/08/01 12:55:16;;;;;;;3.60;2.80;;;18.10;81.60;;;;;;5044087;28;20474;-90
2021/08/01 12:57:59;;;;;;;3.35;3.00;;;18.10;84.10;;;;;;5049167;28;20205;-90
2021/08/01 13:00:29;;;;;;;3.00;2.80;;;18.20;80.10;;;;;;5047348;28;20184;-89